Time;durP1;ratioP1;P1;durP2;ratioP2;P2;SDS_P1;SDS_P2;PMS_P1;PMS_P2;Temp;Humidity;BMP_temperature;BMP_pressure;BME280_temperature;BME280_humidity;BME280_pressure;Samples;Min_cycle;Max_cycle;Signal;HPM_P1;HPM_P2
2022/08/28 00:01:58;;;;;;;8.70;5.30;;;;;;;22.94;59.60;98596.02;238543;1190;138920;-56
2022/08/28 00:07:01;;;;;;;9.50;5.20;;;;;;;22.87;59.55;98599.02;238107;1191;139457;-57
2022/08/28 00:12:05;;;;;;;11.40;4.80;;;;;;;22.80;59.61;98599.84;237863;1190;139460;-58
2022/08/28 00:17:08;;;;;;;6.30;3.90;;;;;;;22.81;59.57;98595.45;238490;1193;140872;-58
2022/08/28 00:22:11;;;;;;;9.80;4.60;;;;;;;22.80;59.64;98595.33;237869;1192;141697;-58
2022/08/28 00:32:38;;;;;;;8.50;5.20;;;;;;;22.77;59.58;98592.23;239043;1190;139556;-57
2022/08/28 00:37:41;;;;;;;7.70;5.00;;;;;;;22.69;59.55;98590.85;238919;1190;139236;-58
2022/08/28 00:42:45;;;;;;;6.40;4.70;;;;;;;22.63;59.64;98584.70;238226;1190;138993;-56
2022/08/28 00:47:49;;;;;;;6.90;4.80;;;;;;;22.61;59.61;98582.73;239002;1190;138577;-57
2022/08/28 00:52:58;;;;;;;10.20;4.60;;;;;;;22.61;59.78;98576.34;238461;1192;139857;-57
2022/08/28 00:58:04;;;;;;;9.50;4.40;;;;;;;22.59;60.04;98583.13;237163;1190;140072;-58
2022/08/28 01:03:07;;;;;;;7.90;4.70;;;;;;;22.55;60.28;98582.77;238846;1190;141429;-57
2022/08/28 01:08:11;;;;;;;8.30;4.20;;;;;;;22.49;60.46;98587.70;237655;1192;138627;-57
2022/08/28 01:13:16;;;;;;;9.20;5.00;;;;;;;22.40;60.66;98584.18;237329;1192;139504;-58
2022/08/28 01:18:21;;;;;;;6.00;4.60;;;;;;;22.33;60.87;98583.59;238723;1192;139585;-57
2022/08/28 01:23:40;;;;;;;7.40;4.40;;;;;;;22.30;61.18;98581.45;237808;1190;139545;-58
2022/08/28 01:28:44;;;;;;;9.70;5.30;;;;;;;22.33;61.50;98579.13;238494;1192;139752;-58
2022/08/28 01:33:47;;;;;;;8.00;4.80;;;;;;;22.34;61.42;98582.06;238950;1192;139562;-58
2022/08/28 01:38:57;;;;;;;9.10;4.90;;;;;;;22.31;61.63;98580.73;237734;1191;141366;-57
2022/08/28 01:44:00;;;;;;;8.70;5.00;;;;;;;22.29;61.66;98584.85;237097;1190;138859;-58
2022/08/28 01:49:03;;;;;;;9.00;4.10;;;;;;;22.22;61.63;98586.05;237488;1192;139570;-58
2022/08/28 01:54:08;;;;;;;8.30;4.20;;;;;;;22.18;61.89;98594.20;238151;1190;140720;-58
2022/08/28 01:59:13;;;;;;;8.30;5.30;;;;;;;22.19;62.04;98593.77;238039;1191;140530;-58
2022/08/28 02:04:16;;;;;;;8.90;5.10;;;;;;;22.19;62.32;98590.10;237518;1191;138631;-56
2022/08/28 02:09:19;;;;;;;8.70;5.10;;;;;;;22.19;62.44;98595.60;238783;1192;139940;-58
2022/08/28 02:14:22;;;;;;;9.60;5.40;;;;;;;22.16;62.36;98604.69;238300;1190;138840;-57
2022/08/28 02:19:25;;;;;;;7.00;4.50;;;;;;;22.16;62.50;98609.60;238154;1190;140227;-57
2022/08/28 02:24:28;;;;;;;8.20;4.60;;;;;;;22.21;62.54;98611.81;238928;1190;140638;-56
2022/08/28 02:29:31;;;;;;;9.40;4.80;;;;;;;22.28;62.71;98614.17;238885;1190;140031;-58
2022/08/28 02:34:35;;;;;;;10.40;5.30;;;;;;;22.30;62.63;98612.83;238936;1192;139198;-58
2022/08/28 02:39:39;;;;;;;7.80;5.30;;;;;;;22.28;62.60;98607.95;238754;1191;139154;-57
2022/08/28 02:44:42;;;;;;;10.40;5.60;;;;;;;22.23;62.72;98612.68;238452;1191;141751;-57
2022/08/28 02:49:45;;;;;;;10.60;5.40;;;;;;;22.19;62.84;98622.50;238259;1191;139308;-58
2022/08/28 02:54:48;;;;;;;7.00;4.90;;;;;;;22.21;62.87;98618.29;238962;1191;139864;-56
2022/08/28 02:59:51;;;;;;;9.30;5.20;;;;;;;22.24;62.92;98624.25;238704;1190;139672;-57
2022/08/28 03:04:54;;;;;;;9.00;5.10;;;;;;;22.26;63.06;98621.16;238467;1190;138916;-56
2022/08/28 03:09:57;;;;;;;11.90;5.70;;;;;;;22.29;63.12;98621.72;237716;1190;139798;-57
2022/08/28 03:15:02;;;;;;;14.90;6.40;;;;;;;22.23;63.09;98621.69;238794;1191;139438;-58
2022/08/28 03:20:08;;;;;;;8.40;5.10;;;;;;;22.18;63.20;98620.56;238826;1191;139229;-57
2022/08/28 03:25:11;;;;;;;8.30;4.80;;;;;;;22.17;63.28;98609.29;237231;1190;139362;-56
2022/08/28 03:30:14;;;;;;;10.30;5.90;;;;;;;22.17;63.31;98614.20;238872;1190;139618;-58
2022/08/28 03:35:19;;;;;;;11.00;5.30;;;;;;;22.15;63.40;98615.70;238555;1191;141372;-57
2022/08/28 03:40:22;;;;;;;8.20;5.70;;;;;;;22.14;63.49;98619.10;239077;1191;139677;-57
2022/08/28 03:45:25;;;;;;;9.60;5.60;;;;;;;22.10;63.47;98617.16;238360;1192;139095;-57
2022/08/28 03:50:28;;;;;;;9.00;5.30;;;;;;;22.04;63.48;98619.84;237473;1192;139660;-57
2022/08/28 03:55:31;;;;;;;9.40;5.00;;;;;;;22.02;63.49;98633.92;237139;1190;140247;-56
2022/08/28 04:00:34;;;;;;;7.30;5.40;;;;;;;22.02;63.58;98637.81;237888;1192;139142;-56
2022/08/28 04:05:42;;;;;;;8.10;5.50;;;;;;;22.08;63.91;98650.73;238076;1190;138947;-58
2022/08/28 04:10:46;;;;;;;8.30;5.50;;;;;;;22.21;64.03;98665.28;237957;1192;139660;-58
2022/08/28 04:16:09;;;;;;;11.50;5.60;;;;;;;22.27;63.76;98664.77;237880;1190;139152;-56
2022/08/28 04:21:16;;;;;;;9.80;4.90;;;;;;;22.27;63.67;98667.27;237923;1190;139717;-58
2022/08/28 04:26:22;;;;;;;10.70;4.60;;;;;;;22.32;63.59;98672.77;239006;1191;140096;-58
2022/08/28 04:31:27;;;;;;;6.90;5.50;;;;;;;22.39;63.63;98678.29;238281;1191;140052;-56
2022/08/28 04:36:34;;;;;;;13.30;5.90;;;;;;;22.40;63.30;98673.36;238057;1191;139554;-57
2022/08/28 04:41:37;;;;;;;9.70;5.90;;;;;;;22.34;63.28;98671.50;238766;1192;139561;-58
2022/08/28 04:46:41;;;;;;;9.10;5.90;;;;;;;22.31;63.31;98665.86;237883;1191;138692;-57
2022/08/28 04:51:44;;;;;;;10.70;6.30;;;;;;;22.36;63.52;98672.23;238687;1190;138988;-57
2022/08/28 04:56:48;;;;;;;11.40;5.70;;;;;;;22.47;63.62;98680.13;238444;1192;139643;-57
2022/08/28 05:01:52;;;;;;;11.80;6.00;;;;;;;22.56;63.47;98680.55;237357;1191;139447;-57
2022/08/28 05:06:55;;;;;;;12.00;6.50;;;;;;;22.56;63.36;98678.52;238232;1191;139705;-58
2022/08/28 05:12:02;;;;;;;8.40;6.70;;;;;;;22.55;63.35;98677.02;238254;1191;139074;-56
2022/08/28 05:17:05;;;;;;;9.30;6.70;;;;;;;22.55;63.38;98673.02;239123;1191;139531;-57
2022/08/28 05:22:09;;;;;;;12.10;6.50;;;;;;;22.63;63.58;98674.83;238627;1191;138816;-57
2022/08/28 05:27:12;;;;;;;9.70;6.00;;;;;;;22.78;63.58;98675.14;238426;1192;139953;-57
2022/08/28 05:32:15;;;;;;;12.30;6.70;;;;;;;22.91;63.56;98677.77;237928;1191;139910;-56
2022/08/28 05:37:18;;;;;;;11.60;7.40;;;;;;;23.06;63.59;98687.05;238915;1191;139317;-58
2022/08/28 05:42:21;;;;;;;10.70;7.30;;;;;;;23.18;63.30;98687.32;239045;1191;140027;-58
2022/08/28 05:47:31;;;;;;;11.00;7.00;;;;;;;23.22;63.01;98685.50;239002;1191;138934;-57
2022/08/28 05:52:34;;;;;;;14.10;6.90;;;;;;;23.25;62.77;98683.37;239154;1191;139297;-56
2022/08/28 05:57:38;;;;;;;11.30;6.50;;;;;;;23.29;62.49;98681.39;237966;1191;140165;-57
2022/08/28 06:02:43;;;;;;;12.30;6.70;;;;;;;23.32;62.34;98667.81;237612;1192;139427;-57
2022/08/28 06:07:46;;;;;;;13.30;6.70;;;;;;;23.35;62.30;98679.52;238651;1191;139418;-57
2022/08/28 06:12:49;;;;;;;11.80;6.60;;;;;;;23.34;61.99;98674.27;237411;1192;140394;-57
2022/08/28 06:17:52;;;;;;;9.00;6.30;;;;;;;23.29;61.91;98675.75;237927;1192;139608;-58
2022/08/28 06:22:55;;;;;;;15.00;7.40;;;;;;;23.26;61.83;98677.59;238283;1192;139952;-57
2022/08/28 06:27:58;;;;;;;9.80;6.00;;;;;;;23.24;61.68;98673.00;238530;1191;141851;-57
2022/08/28 06:33:04;;;;;;;11.20;6.40;;;;;;;23.23;61.61;98668.75;237806;1191;139948;-58
2022/08/28 06:38:07;;;;;;;9.10;6.20;;;;;;;23.24;61.68;98669.54;238193;1191;139245;-57
2022/08/28 06:43:12;;;;;;;11.20;6.30;;;;;;;23.25;61.48;98664.66;238816;1191;139168;-57
2022/08/28 06:48:16;;;;;;;11.30;6.60;;;;;;;23.26;61.30;98659.70;238014;1192;139061;-58
2022/08/28 06:53:23;;;;;;;12.40;7.60;;;;;;;23.23;61.15;98669.60;238257;1191;139815;-57
2022/08/28 06:58:27;;;;;;;8.90;7.00;;;;;;;23.23;61.15;98675.66;237946;1191;138830;-57
2022/08/28 07:03:30;;;;;;;11.50;6.50;;;;;;;23.18;61.07;98676.13;237110;1192;139415;-55
2022/08/28 07:08:35;;;;;;;15.70;7.40;;;;;;;23.20;61.17;98669.81;238733;1191;139736;-57
2022/08/28 07:13:39;;;;;;;12.90;7.20;;;;;;;23.27;61.27;98661.33;238670;1191;139371;-57
2022/08/28 07:18:44;;;;;;;13.40;7.50;;;;;;;23.34;61.42;98654.36;236973;1192;138832;-58
2022/08/28 07:23:47;;;;;;;10.50;6.90;;;;;;;23.47;61.51;98653.13;237811;1191;139280;-58
2022/08/28 07:28:53;;;;;;;10.50;6.60;;;;;;;23.61;61.54;98651.31;237928;1191;139996;-57
2022/08/28 07:34:14;;;;;;;10.30;6.50;;;;;;;23.75;61.50;98651.20;238796;1190;139589;-57
2022/08/28 07:39:18;;;;;;;12.20;7.30;;;;;;;23.92;61.55;98651.33;238517;1190;142009;-58
2022/08/28 07:49:43;;;;;;;10.70;6.90;;;;;;;24.20;61.30;98652.08;239020;1191;139154;-57
2022/08/28 07:54:47;;;;;;;10.70;6.20;;;;;;;24.35;61.20;98650.85;237786;1190;138934;-58
2022/08/28 07:59:51;;;;;;;13.60;6.30;;;;;;;24.52;61.02;98647.73;239019;1191;139738;-58
2022/08/28 08:04:54;;;;;;;10.80;6.10;;;;;;;24.71;60.80;98644.51;237216;1192;139635;-57
2022/08/28 08:09:57;;;;;;;10.60;6.20;;;;;;;24.81;60.30;98640.45;238381;1190;140146;-58
2022/08/28 08:15:00;;;;;;;9.00;5.90;;;;;;;24.90;60.14;98642.66;238585;1191;139031;-59
2022/08/28 08:20:05;;;;;;;8.50;5.90;;;;;;;24.95;59.73;98643.96;238877;1192;140108;-59
2022/08/28 08:25:08;;;;;;;15.70;6.20;;;;;;;25.00;59.60;98646.91;238901;1191;139383;-57
2022/08/28 08:30:11;;;;;;;8.00;5.60;;;;;;;25.06;59.36;98641.91;238063;1191;139924;-57
2022/08/28 08:35:16;;;;;;;10.00;5.50;;;;;;;25.14;59.02;98648.33;237650;1191;139255;-58
2022/08/28 08:40:19;;;;;;;13.20;5.70;;;;;;;25.20;58.57;98655.12;238915;1190;140750;-58
2022/08/28 08:45:25;;;;;;;11.90;6.90;;;;;;;25.27;58.54;98654.23;238834;1190;139623;-59
2022/08/28 08:50:34;;;;;;;9.80;5.90;;;;;;;25.37;58.38;98659.94;238477;1191;139462;-59
2022/08/28 08:55:49;;;;;;;9.80;6.00;;;;;;;25.46;57.97;98671.64;238078;1191;140662;-56
2022/08/28 09:01:00;;;;;;;9.90;5.40;;;;;;;25.54;57.46;98671.42;238888;1190;138667;-58
2022/08/28 09:06:05;;;;;;;11.10;5.90;;;;;;;25.62;57.32;98666.84;238931;1190;139231;-58
2022/08/28 09:11:27;;;;;;;8.90;5.40;;;;;;;25.71;57.25;98672.34;238340;1192;139359;-59
2022/08/28 09:16:43;;;;;;;9.90;5.10;;;;;;;25.78;57.09;98679.17;238243;1192;139655;-59
2022/08/28 09:21:47;;;;;;;10.10;5.50;;;;;;;25.80;56.61;98678.12;238620;1191;139372;-58
2022/08/28 09:27:02;;;;;;;11.20;5.30;;;;;;;25.81;56.59;98681.86;238510;1192;139304;-58
2022/08/28 09:32:37;;;;;;;10.80;4.90;;;;;;;25.82;56.28;98686.23;238432;1191;139217;-58
2022/08/28 09:37:42;;;;;;;10.80;4.90;;;;;;;25.87;56.16;98691.29;238404;1191;139196;-58
2022/08/28 09:48:40;;;;;;;9.90;5.60;;;;;;;26.01;55.85;98699.91;239069;1192;139507;-59
2022/08/28 09:53:52;;;;;;;10.60;5.40;;;;;;;26.12;55.69;98697.61;238960;1190;140092;-59
2022/08/28 09:59:00;;;;;;;9.80;5.60;;;;;;;26.22;55.48;98694.55;238758;1192;139354;-57
2022/08/28 10:04:37;;;;;;;9.50;5.10;;;;;;;26.30;55.40;98692.68;237812;1190;140311;-58
2022/08/28 10:09:55;;;;;;;11.00;5.30;;;;;;;26.37;54.97;98694.61;238938;1191;139049;-59
2022/08/28 10:15:16;;;;;;;8.70;4.60;;;;;;;26.40;54.76;98691.96;238104;1192;139143;-59
2022/08/28 10:20:39;;;;;;;12.70;5.10;;;;;;;26.42;54.54;98689.95;238984;1190;139136;-59
2022/08/28 10:25:57;;;;;;;7.50;5.50;;;;;;;26.42;54.38;98694.31;238686;1192;141777;-59
2022/08/28 10:31:08;;;;;;;10.40;5.40;;;;;;;26.41;54.35;98690.45;238390;1190;139419;-57
2022/08/28 10:36:20;;;;;;;11.80;5.40;;;;;;;26.39;54.26;98693.80;237611;1192;138828;-59
2022/08/28 10:41:49;;;;;;;11.40;5.10;;;;;;;26.35;54.30;98693.41;238990;1192;139096;-57
2022/08/28 10:46:56;;;;;;;7.00;4.80;;;;;;;26.33;54.07;98692.61;238793;1192;139367;-58
2022/08/28 10:52:07;;;;;;;10.00;5.20;;;;;;;26.33;54.04;98691.73;238836;1190;139372;-57
2022/08/28 10:57:24;;;;;;;7.80;5.40;;;;;;;26.35;53.72;98694.71;238551;1191;139402;-58
2022/08/28 11:02:29;;;;;;;12.20;5.60;;;;;;;26.36;53.64;98694.72;238913;1192;139037;-57
2022/08/28 11:07:49;;;;;;;15.30;6.90;;;;;;;26.37;53.73;98692.63;237480;1192;139266;-55
2022/08/28 11:12:52;;;;;;;11.10;5.70;;;;;;;26.38;53.70;98693.30;237366;1192;140370;-58
2022/08/28 11:18:15;;;;;;;10.70;5.00;;;;;;;26.39;53.57;98685.91;237796;1192;139098;-60
2022/08/28 11:23:28;;;;;;;13.40;5.30;;;;;;;26.38;53.54;98683.17;238915;1192;139032;-58
2022/08/28 11:28:34;;;;;;;9.10;5.20;;;;;;;26.38;53.57;98681.20;237702;1192;139654;-59
2022/08/28 11:33:51;;;;;;;9.20;5.00;;;;;;;26.37;53.69;98683.48;238929;1190;138735;-58
2022/08/28 11:38:54;;;;;;;8.40;5.20;;;;;;;26.39;53.61;98678.27;238897;1191;140111;-57
2022/08/28 11:44:07;;;;;;;8.10;5.10;;;;;;;26.43;53.65;98676.55;238481;1190;138853;-58
2022/08/28 11:49:23;;;;;;;6.50;5.20;;;;;;;26.49;53.62;98673.42;237142;1192;138552;-59
2022/08/28 11:54:36;;;;;;;12.00;5.50;;;;;;;26.55;53.72;98671.66;238318;1192;139421;-56
2022/08/28 11:59:52;;;;;;;9.40;5.50;;;;;;;26.57;53.72;98670.58;238241;1192;138844;-58
2022/08/28 12:04:56;;;;;;;9.20;5.10;;;;;;;26.62;53.69;98677.02;237100;1190;139485;-56
2022/08/28 12:09:59;;;;;;;8.40;5.40;;;;;;;26.65;53.57;98677.56;238684;1191;139147;-58
2022/08/28 12:15:08;;;;;;;10.60;5.30;;;;;;;26.67;53.45;98681.68;238149;1190;138991;-58
2022/08/28 12:20:20;;;;;;;7.00;4.80;;;;;;;26.78;53.11;98687.11;239096;1190;139295;-58
2022/08/28 12:25:40;;;;;;;8.10;4.90;;;;;;;26.81;52.72;98684.69;237343;1192;139606;-58
2022/08/28 12:31:05;;;;;;;9.90;4.80;;;;;;;26.88;52.44;98674.65;238761;1191;139127;-56
2022/08/28 12:36:15;;;;;;;10.30;4.60;;;;;;;27.03;52.25;98669.78;237776;1190;139345;-58
2022/08/28 12:41:20;;;;;;;11.20;6.30;;;;;;;27.14;52.10;98665.21;238380;1192;140515;-59
2022/08/28 12:46:28;;;;;;;;;;;;;;;27.17;52.00;98661.05;238758;1192;138728;-58
2022/08/28 12:51:34;;;;;;;7.00;4.00;;;;;;;27.16;51.78;98656.86;237983;1192;125365;-58
2022/08/28 12:56:37;;;;;;;7.60;4.70;;;;;;;27.15;51.74;98656.96;238812;1191;139387;-59
2022/08/28 13:01:41;;;;;;;5.60;4.10;;;;;;;27.22;51.61;98648.91;238149;1190;139453;-58
2022/08/28 13:06:44;;;;;;;8.20;4.40;;;;;;;27.43;51.94;98645.98;237250;1192;139946;-58
2022/08/28 13:11:50;;;;;;;11.90;10.20;;;;;;;27.87;51.78;98634.55;238118;1192;139396;-59
2022/08/28 13:16:53;;;;;;;7.60;4.80;;;;;;;28.14;51.11;98626.61;238594;1192;142704;-59
2022/08/28 13:22:00;;;;;;;12.20;5.30;;;;;;;28.36;50.76;98617.16;239055;1190;208928;-58
2022/08/28 13:27:06;;;;;;;9.30;4.30;;;;;;;28.64;50.80;98609.23;237969;1190;139877;-58
2022/08/28 13:32:16;;;;;;;7.70;4.20;;;;;;;28.97;50.35;98612.52;238659;1192;138752;-58
2022/08/28 13:37:42;;;;;;;9.30;4.70;;;;;;;29.27;50.24;98617.59;238883;1191;139054;-58
2022/08/28 13:42:46;;;;;;;9.70;4.60;;;;;;;29.52;49.71;98621.69;239028;1190;139028;-58
2022/08/28 13:47:50;;;;;;;8.40;4.70;;;;;;;29.71;49.31;98627.13;238651;1190;138499;-57
2022/08/28 13:52:54;;;;;;;6.10;4.30;;;;;;;29.82;49.13;98624.44;238930;1192;138810;-57
2022/08/28 13:57:57;;;;;;;6.20;4.50;;;;;;;29.92;48.98;98622.63;238978;1190;139741;-57
2022/08/28 14:08:22;;;;;;;8.30;4.40;;;;;;;30.31;48.06;98614.50;237616;1190;139180;-58
2022/08/28 14:13:26;;;;;;;6.10;4.60;;;;;;;30.12;47.36;98615.60;237989;1190;139046;-56
2022/08/28 14:18:29;;;;;;;10.20;4.00;;;;;;;29.84;47.57;98620.38;238113;1192;139118;-59
2022/08/28 14:23:33;;;;;;;7.60;4.00;;;;;;;29.56;47.43;98626.46;238687;1192;140024;-59
2022/08/28 14:28:36;;;;;;;7.60;4.20;;;;;;;29.30;47.64;98620.74;238839;1192;140453;-59
2022/08/28 14:33:39;;;;;;;9.10;4.30;;;;;;;29.12;47.73;98623.52;238450;1192;138991;-58
2022/08/28 14:38:44;;;;;;;9.10;5.10;;;;;;;28.90;47.57;98639.50;237227;1192;138990;-56
2022/08/28 14:43:48;;;;;;;9.30;5.20;;;;;;;28.67;47.99;98649.06;236554;1192;138817;-56
2022/08/28 14:48:51;;;;;;;12.10;7.00;;;;;;;28.42;48.38;98653.89;238591;1191;139388;-57
2022/08/28 14:53:54;;;;;;;11.90;5.90;;;;;;;28.22;48.87;98649.86;238197;1191;139249;-58
2022/08/28 14:58:59;;;;;;;11.80;5.50;;;;;;;28.08;49.29;98651.95;237211;1190;139111;-58
2022/08/28 15:04:05;;;;;;;8.30;5.20;;;;;;;27.94;49.57;98651.46;238667;1192;139293;-58
2022/08/28 15:09:10;;;;;;;11.60;5.80;;;;;;;27.77;49.95;98658.83;238591;1192;141024;-55
2022/08/28 15:14:13;;;;;;;;;;;;;;;27.64;50.30;98658.73;238709;1192;139123;-57
2022/08/28 15:19:16;;;;;;;4.50;3.50;;;;;;;27.47;50.61;98676.88;238708;1192;126200;-58
2022/08/28 15:24:23;;;;;;;3.80;3.40;;;;;;;27.20;50.09;98694.17;238903;1192;139307;-57
2022/08/28 15:29:27;;;;;;;4.70;3.20;;;;;;;26.86;50.07;98705.82;238126;1192;138841;-57
2022/08/28 15:34:31;;;;;;;5.80;3.60;;;;;;;26.52;50.19;98713.02;238444;1190;138932;-57
2022/08/28 15:44:56;;;;;;;4.40;3.40;;;;;;;25.88;50.91;98725.68;238450;1191;139102;-58
2022/08/28 15:49:59;;;;;;;7.40;4.20;;;;;;;25.63;51.27;98734.81;238636;1192;138880;-58
2022/08/28 15:55:05;;;;;;;7.40;4.30;;;;;;;25.38;51.87;98734.71;238661;1192;139358;-57
2022/08/28 16:00:08;;;;;;;5.70;4.20;;;;;;;25.15;52.59;98745.54;236970;1191;139932;-56
2022/08/28 16:05:12;;;;;;;6.70;4.80;;;;;;;24.88;53.26;98749.33;238685;1192;139841;-57
2022/08/28 16:10:17;;;;;;;7.30;4.80;;;;;;;24.56;53.95;98756.84;237752;1191;139485;-59
2022/08/28 16:15:20;;;;;;;60.00;49.70;;;;;;;24.31;54.44;98763.34;238507;1192;138556;-56
2022/08/28 16:20:24;;;;;;;10.20;8.30;;;;;;;24.20;55.07;98759.89;238564;1192;140105;-57
2022/08/28 16:25:27;;;;;;;9.40;6.10;;;;;;;24.05;55.61;98760.15;237342;1192;140216;-57
2022/08/28 16:30:32;;;;;;;10.10;5.50;;;;;;;23.93;56.05;98763.34;238687;1190;139624;-55
2022/08/28 16:35:40;;;;;;;8.10;6.10;;;;;;;23.90;56.69;98759.94;236904;1190;139217;-55
2022/08/28 16:40:52;;;;;;;11.30;7.30;;;;;;;23.84;57.16;98757.11;238801;1191;139127;-57
2022/08/28 16:45:55;;;;;;;11.90;9.50;;;;;;;23.77;57.52;98754.91;238730;1191;139587;-58
2022/08/28 16:50:58;;;;;;;41.70;32.60;;;;;;;23.74;58.05;98754.43;238687;1192;139375;-58
2022/08/28 16:56:02;;;;;;;9.10;7.70;;;;;;;23.74;58.41;98751.17;237579;1192;138898;-57
2022/08/28 17:01:05;;;;;;;8.80;6.10;;;;;;;23.88;58.58;98744.43;238946;1192;140233;-56
2022/08/28 17:06:18;;;;;;;9.90;6.60;;;;;;;23.97;58.74;98745.20;237939;1190;140348;-57
2022/08/28 17:11:23;;;;;;;7.70;6.30;;;;;;;24.05;58.88;98745.52;238857;1192;138991;-57
2022/08/28 17:16:29;;;;;;;125.20;110.90;;;;;;;24.07;58.82;98742.53;238775;1192;139255;-57
2022/08/28 17:26:54;;;;;;;10.80;5.60;;;;;;;24.00;58.74;98750.55;238655;1192;140871;-57
2022/08/28 17:31:57;;;;;;;7.50;5.80;;;;;;;24.00;59.01;98754.73;238890;1190;140499;-58
2022/08/28 17:37:02;;;;;;;6.90;5.90;;;;;;;23.99;59.03;98758.98;238765;1190;139329;-57
2022/08/28 17:42:05;;;;;;;9.90;8.00;;;;;;;24.01;59.22;98771.52;237910;1191;140254;-58
2022/08/28 17:47:08;;;;;;;10.50;8.30;;;;;;;24.05;59.36;98773.11;238794;1190;139937;-57
2022/08/28 17:52:12;;;;;;;26.20;23.40;;;;;;;24.04;59.22;98779.14;238308;1192;239090;-57
2022/08/28 17:57:16;;;;;;;9.00;6.40;;;;;;;24.04;59.25;98780.64;238548;1192;141942;-59
2022/08/28 18:02:19;;;;;;;6.80;5.70;;;;;;;24.08;59.29;98787.05;238573;1192;141415;-59
2022/08/28 18:07:22;;;;;;;7.20;6.00;;;;;;;24.13;59.56;98788.49;238328;1192;138650;-57
2022/08/28 18:12:25;;;;;;;10.10;6.10;;;;;;;24.14;59.49;98795.51;238914;1190;141313;-55
2022/08/28 18:17:28;;;;;;;7.30;5.00;;;;;;;24.11;59.42;98797.02;238977;1191;139569;-58
2022/08/28 18:22:31;;;;;;;7.50;4.70;;;;;;;24.05;59.42;98805.95;238922;1192;140147;-58
2022/08/28 18:27:35;;;;;;;28.20;22.70;;;;;;;24.02;59.58;98809.85;238807;1192;140250;-56
2022/08/28 18:32:39;;;;;;;8.80;6.10;;;;;;;24.01;59.69;98814.01;238816;1191;140068;-57
2022/08/28 18:37:42;;;;;;;7.60;5.60;;;;;;;24.00;59.78;98820.44;237025;1190;139939;-57
2022/08/28 18:42:45;;;;;;;7.80;4.90;;;;;;;23.97;59.80;98820.48;238889;1191;139455;-57
2022/08/28 18:47:49;;;;;;;6.20;4.40;;;;;;;23.95;59.98;98817.11;238908;1191;139315;-57
2022/08/28 18:52:53;;;;;;;27.60;24.20;;;;;;;23.98;60.17;98819.58;238835;1191;139954;-58
2022/08/28 18:57:58;;;;;;;6.70;5.60;;;;;;;24.00;60.08;98824.44;238788;1192;139800;-57
2022/08/28 19:03:02;;;;;;;62.80;52.00;;;;;;;23.94;59.97;98830.89;238756;1192;138776;-57
2022/08/28 19:08:06;;;;;;;8.70;6.40;;;;;;;23.83;60.02;98835.41;238936;1192;140882;-54
2022/08/28 19:13:09;;;;;;;6.30;4.60;;;;;;;23.66;59.90;98835.02;238756;1190;139650;-57
2022/08/28 19:18:12;;;;;;;5.80;3.80;;;;;;;23.49;59.93;98839.08;238675;1192;139703;-57
2022/08/28 19:23:15;;;;;;;6.60;4.60;;;;;;;23.32;60.19;98843.98;238220;1192;140117;-56
2022/08/28 19:28:19;;;;;;;6.10;4.80;;;;;;;23.22;60.39;98846.83;239017;1190;139862;-56
2022/08/28 19:33:23;;;;;;;8.30;5.10;;;;;;;23.14;60.59;98851.60;238799;1191;141925;-58
2022/08/28 19:38:28;;;;;;;5.80;4.60;;;;;;;23.04;60.75;98849.67;238870;1191;138609;-57
2022/08/28 19:43:32;;;;;;;6.20;4.80;;;;;;;22.97;60.93;98845.27;238662;1190;140029;-57
2022/08/28 19:48:52;;;;;;;8.00;4.60;;;;;;;22.91;61.13;98846.80;238727;1191;139360;-57
2022/08/28 19:53:55;;;;;;;7.80;5.20;;;;;;;22.88;61.32;98849.67;237650;1190;139302;-57
2022/08/28 19:59:04;;;;;;;6.10;4.70;;;;;;;22.82;61.38;98848.84;238973;1191;139059;-57
2022/08/28 20:04:08;;;;;;;6.40;5.00;;;;;;;22.77;61.44;98851.73;238822;1192;138981;-57
2022/08/28 20:09:11;;;;;;;7.60;4.30;;;;;;;22.74;61.55;98852.09;237010;1192;139748;-56
2022/08/28 20:14:17;;;;;;;7.70;4.60;;;;;;;22.74;61.77;98850.79;238834;1191;139421;-56
2022/08/28 20:19:22;;;;;;;6.00;5.10;;;;;;;22.78;61.87;98847.58;238479;1191;138799;-56
2022/08/28 20:24:25;;;;;;;9.10;4.70;;;;;;;22.80;62.00;98845.41;237711;1192;139621;-56
2022/08/28 20:29:28;;;;;;;6.30;5.60;;;;;;;22.76;61.90;98850.51;237065;1192;138664;-56
2022/08/28 20:34:31;;;;;;;7.20;5.40;;;;;;;22.70;61.94;98853.63;237216;1190;139497;-58
2022/08/28 20:39:36;;;;;;;9.30;6.30;;;;;;;22.65;62.17;98853.83;238824;1191;140108;-58
2022/08/28 20:44:39;;;;;;;8.90;6.90;;;;;;;22.63;62.35;98857.23;238850;1191;139845;-60
2022/08/28 20:49:42;;;;;;;10.40;7.30;;;;;;;22.63;62.59;98858.92;238923;1191;139307;-60
2022/08/28 20:54:45;;;;;;;11.70;7.80;;;;;;;22.61;62.58;98859.67;238040;1192;139570;-60
2022/08/28 20:59:49;;;;;;;7.80;6.50;;;;;;;22.54;62.61;98857.98;238756;1192;140676;-60
2022/08/28 21:04:56;;;;;;;8.20;6.80;;;;;;;22.52;62.69;98864.02;238762;1190;139794;-60
2022/08/28 21:10:02;;;;;;;11.80;7.10;;;;;;;22.53;62.98;98863.16;236978;1192;139512;-60
2022/08/28 21:15:11;;;;;;;9.10;7.60;;;;;;;22.56;63.11;98869.87;239108;1190;139792;-58
2022/08/28 21:20:15;;;;;;;11.30;7.90;;;;;;;22.55;63.19;98873.05;238630;1190;139781;-58
2022/08/28 21:25:20;;;;;;;10.30;8.20;;;;;;;22.56;63.34;98874.35;238437;1192;139499;-59
2022/08/28 21:30:23;;;;;;;10.80;8.40;;;;;;;22.61;63.42;98876.49;238842;1192;140406;-58
2022/08/28 21:35:31;;;;;;;14.30;9.50;;;;;;;22.67;63.51;98877.04;239115;1190;140299;-57
2022/08/28 21:40:34;;;;;;;13.80;10.20;;;;;;;22.72;63.57;98876.27;239054;1190;139152;-56
2022/08/28 21:45:37;;;;;;;17.70;11.10;;;;;;;22.73;63.62;98877.48;238946;1190;139457;-57
2022/08/28 21:50:41;;;;;;;15.30;10.90;;;;;;;22.71;63.67;98882.91;238697;1192;140584;-57
2022/08/28 21:55:51;;;;;;;13.50;11.50;;;;;;;22.74;63.70;98882.39;238756;1191;140779;-58
2022/08/28 22:00:57;;;;;;;15.50;11.90;;;;;;;22.74;63.71;98883.27;239008;1191;140238;-57
2022/08/28 22:06:00;;;;;;;16.80;12.60;;;;;;;22.75;63.97;98880.48;237466;1191;140274;-59
2022/08/28 22:11:03;;;;;;;17.10;13.40;;;;;;;22.76;64.04;98880.42;238963;1190;139930;-58
2022/08/28 22:16:07;;;;;;;16.30;13.10;;;;;;;22.74;64.07;98877.42;238661;1192;140399;-57
2022/08/28 22:26:35;;;;;;;16.80;14.20;;;;;;;22.74;64.26;98882.20;238846;1191;139484;-59
2022/08/28 22:31:38;;;;;;;24.70;19.90;;;;;;;22.77;64.42;98883.64;238930;1192;139650;-58
2022/08/28 22:36:48;;;;;;;19.80;16.20;;;;;;;22.78;64.34;98889.90;238901;1192;142417;-59
2022/08/28 22:41:51;;;;;;;17.00;14.80;;;;;;;22.74;64.32;98893.96;238792;1192;139734;-57
2022/08/28 22:46:54;;;;;;;17.80;15.40;;;;;;;22.77;64.49;98893.68;239095;1190;140273;-58
2022/08/28 22:51:56;;;;;;;21.30;17.60;;;;;;;22.83;64.67;98897.82;238950;1192;139893;-59
2022/08/28 22:56:59;;;;;;;23.20;19.10;;;;;;;22.86;64.63;98902.60;238968;1192;140005;-58
2022/08/28 23:02:03;;;;;;;24.80;20.30;;;;;;;22.86;64.61;98908.88;238800;1190;139154;-58
2022/08/28 23:07:06;;;;;;;23.10;18.40;;;;;;;22.82;64.46;98911.63;239132;1190;139901;-58
2022/08/28 23:12:09;;;;;;;21.60;17.80;;;;;;;22.79;64.47;98914.73;239055;1190;142125;-59
2022/08/28 23:17:12;;;;;;;23.80;19.10;;;;;;;22.81;64.51;98922.12;239015;1191;140263;-58
2022/08/28 23:22:15;;;;;;;22.30;19.40;;;;;;;22.80;64.50;98924.61;239022;1190;139587;-60
2022/08/28 23:27:18;;;;;;;20.00;16.70;;;;;;;22.79;64.55;98923.79;238317;1191;139782;-58
2022/08/28 23:32:38;;;;;;;20.90;16.10;;;;;;;22.76;64.57;98920.75;238992;1191;139799;-58
2022/08/28 23:37:43;;;;;;;18.50;14.60;;;;;;;22.78;64.67;98919.56;238995;1190;140448;-57
2022/08/28 23:42:54;;;;;;;18.20;15.40;;;;;;;22.81;64.77;98924.77;238568;1192;140294;-55
2022/08/28 23:47:58;;;;;;;17.30;14.70;;;;;;;22.84;64.62;98924.14;238861;1190;140141;-58
2022/08/28 23:53:03;;;;;;;15.50;12.70;;;;;;;22.79;64.46;98926.00;239193;1192;139087;-58